createdAt,value
2018-08-09T00:01:46.357Z,21.70
2018-08-09T00:04:15.768Z,22.00
2018-08-09T00:06:45.056Z,21.90
2018-08-09T00:09:14.180Z,22.40
2018-08-09T00:11:43.360Z,21.50
2018-08-09T00:14:13.071Z,20.70
2018-08-09T00:16:42.444Z,21.40
2018-08-09T00:19:11.765Z,21.60
2018-08-09T00:21:41.028Z,21.80
2018-08-09T00:24:10.368Z,21.40
2018-08-09T00:26:39.438Z,21.70
2018-08-09T00:29:08.684Z,21.90
2018-08-09T00:31:37.960Z,22.00
2018-08-09T00:34:07.208Z,21.70
2018-08-09T00:36:36.528Z,21.80
2018-08-09T00:39:07.892Z,21.80
2018-08-09T00:41:37.268Z,21.70
2018-08-09T00:44:06.628Z,21.40
2018-08-09T00:46:36.101Z,21.90
2018-08-09T00:49:05.912Z,22.20
2018-08-09T00:51:35.443Z,21.90
2018-08-09T00:54:04.719Z,22.10
2018-08-09T00:56:34.033Z,22.10
2018-08-09T00:59:03.649Z,22.10
2018-08-09T01:01:32.880Z,22.00
2018-08-09T01:04:02.268Z,21.80
2018-08-09T01:06:31.401Z,21.60
2018-08-09T01:09:07.770Z,21.70
2018-08-09T01:11:38.194Z,21.60
2018-08-09T01:14:07.391Z,21.50
2018-08-09T01:16:36.723Z,21.40
2018-08-09T01:19:06.044Z,21.60
2018-08-09T01:21:35.279Z,21.40
2018-08-09T01:24:04.445Z,21.80
2018-08-09T01:26:33.891Z,22.10
2018-08-09T01:29:03.116Z,22.10
2018-08-09T01:31:34.824Z,22.20
2018-08-09T01:34:06.113Z,21.90
2018-08-09T01:36:35.999Z,21.90
2018-08-09T01:39:08.400Z,21.90
2018-08-09T01:41:37.548Z,21.90
2018-08-09T01:44:07.620Z,21.80
2018-08-09T01:46:36.902Z,21.80
2018-08-09T01:49:06.164Z,21.90
2018-08-09T01:51:35.420Z,21.70
2018-08-09T01:54:04.805Z,21.60
2018-08-09T01:56:34.136Z,21.40
2018-08-09T01:59:03.540Z,21.40
2018-08-09T02:01:32.881Z,21.50
2018-08-09T02:04:02.091Z,21.40
2018-08-09T02:06:31.365Z,21.30
2018-08-09T02:10:03.873Z,21.00
2018-08-09T02:12:33.220Z,21.20
2018-08-09T02:15:02.411Z,20.90
2018-08-09T02:17:31.656Z,20.90
2018-08-09T02:20:00.936Z,21.10
2018-08-09T02:22:30.264Z,21.20
2018-08-09T02:24:59.660Z,21.10
2018-08-09T02:27:28.998Z,21.10
2018-08-09T02:29:58.169Z,21.10
2018-08-09T02:32:27.439Z,21.10
2018-08-09T02:34:56.817Z,21.10
2018-08-09T02:37:26.031Z,21.10
2018-08-09T02:39:55.293Z,20.30
2018-08-09T02:42:24.749Z,20.50
2018-08-09T02:44:53.920Z,20.60
2018-08-09T02:47:23.171Z,20.70
2018-08-09T02:49:52.342Z,21.00
2018-08-09T02:52:21.587Z,21.10
2018-08-09T02:54:50.900Z,21.40
2018-08-09T02:57:20.393Z,21.00
2018-08-09T02:59:49.539Z,20.60
2018-08-09T03:02:18.820Z,20.50
2018-08-09T03:04:48.165Z,20.20
2018-08-09T03:07:17.356Z,19.40
2018-08-09T03:09:46.469Z,20.00
2018-08-09T03:12:15.642Z,20.50
2018-08-09T03:14:44.812Z,20.70
2018-08-09T03:17:17.092Z,20.90
2018-08-09T03:19:46.592Z,21.00
2018-08-09T03:22:15.887Z,21.20
2018-08-09T03:24:45.116Z,21.40
2018-08-09T03:27:14.303Z,21.40
2018-08-09T03:29:43.429Z,21.40
2018-08-09T03:32:12.700Z,21.50
2018-08-09T03:34:42.287Z,20.90
2018-08-09T03:37:11.732Z,20.80
2018-08-09T03:39:41.102Z,20.40
2018-08-09T03:42:10.352Z,20.40
2018-08-09T03:44:39.402Z,20.50
2018-08-09T03:47:08.615Z,20.50
2018-08-09T03:49:37.783Z,19.60
2018-08-09T03:52:07.168Z,20.30
2018-08-09T03:54:36.457Z,19.90
2018-08-09T03:57:05.984Z,19.70
2018-08-09T03:59:35.288Z,20.10
2018-08-09T04:02:04.716Z,20.60
2018-08-09T04:04:34.099Z,20.60
2018-08-09T04:07:03.425Z,21.00
2018-08-09T04:09:32.621Z,20.90
2018-08-09T04:12:02.172Z,20.50
2018-08-09T04:14:31.363Z,20.40
2018-08-09T04:17:00.704Z,20.20
2018-08-09T04:19:29.888Z,19.90
2018-08-09T04:21:59.352Z,20.00
2018-08-09T04:24:28.925Z,20.10
2018-08-09T04:26:58.248Z,20.30
2018-08-09T04:29:27.652Z,20.60
2018-08-09T04:31:57.084Z,20.30
2018-08-09T04:34:27.097Z,20.10
2018-08-09T04:36:56.544Z,20.00
2018-08-09T04:39:25.773Z,19.70
2018-08-09T04:41:55.244Z,20.10
2018-08-09T04:44:24.504Z,19.90
2018-08-09T04:46:53.936Z,20.20
2018-08-09T04:49:23.133Z,20.30
2018-08-09T04:51:52.248Z,20.30
2018-08-09T04:54:21.486Z,20.20
2018-08-09T04:56:50.903Z,20.20
2018-08-09T04:59:20.017Z,20.30
2018-08-09T05:01:49.395Z,20.80
2018-08-09T05:04:18.864Z,21.00
2018-08-09T05:06:48.030Z,21.20
2018-08-09T05:09:17.466Z,20.80
2018-08-09T05:11:46.630Z,20.90
2018-08-09T05:14:15.776Z,20.40
2018-08-09T05:16:44.968Z,20.70
2018-08-09T05:19:14.208Z,20.40
2018-08-09T05:21:43.468Z,20.80
2018-08-09T05:24:12.721Z,20.70
2018-08-09T05:26:42.139Z,20.60
2018-08-09T05:29:11.552Z,20.70
2018-08-09T05:31:40.840Z,20.30
2018-08-09T05:34:10.479Z,20.40
2018-08-09T05:36:39.902Z,20.40
2018-08-09T05:39:11.024Z,20.20
2018-08-09T05:41:40.316Z,20.80
2018-08-09T05:44:09.569Z,21.40
2018-08-09T05:46:38.803Z,21.30
2018-08-09T05:49:07.996Z,21.30
2018-08-09T05:51:37.293Z,21.40
2018-08-09T05:54:06.517Z,20.70
2018-08-09T05:56:35.800Z,21.20
2018-08-09T05:59:05.076Z,21.30
2018-08-09T06:01:34.220Z,21.60
2018-08-09T06:04:03.464Z,22.50
2018-08-09T06:06:32.781Z,23.40
2018-08-09T06:09:02.112Z,23.90
2018-08-09T06:11:31.377Z,24.60
2018-08-09T06:14:00.819Z,22.90
2018-08-09T06:16:30.246Z,21.90
2018-08-09T06:18:59.630Z,21.10
2018-08-09T06:21:29.211Z,20.90
2018-08-09T06:23:58.475Z,21.00
2018-08-09T06:26:28.002Z,21.10
2018-08-09T06:28:57.317Z,21.00
2018-08-09T06:31:26.725Z,21.20
2018-08-09T06:33:55.905Z,21.50
2018-08-09T06:36:25.668Z,22.00
2018-08-09T06:38:55.047Z,22.90
2018-08-09T06:41:24.377Z,22.70
2018-08-09T06:43:53.728Z,23.00
2018-08-09T06:46:23.008Z,22.00
2018-08-09T06:48:52.590Z,21.60
2018-08-09T06:51:21.943Z,21.30
2018-08-09T06:53:51.236Z,21.10
2018-08-09T06:56:20.504Z,21.30
2018-08-09T06:58:49.760Z,21.20
2018-08-09T07:01:19.215Z,21.40
2018-08-09T07:03:48.468Z,21.70
2018-08-09T07:06:17.736Z,21.60
2018-08-09T07:08:47.002Z,21.90
2018-08-09T07:11:16.244Z,22.90
2018-08-09T07:13:45.408Z,22.20
2018-08-09T07:16:14.688Z,22.40
2018-08-09T07:18:43.839Z,22.60
2018-08-09T07:21:13.144Z,22.60
2018-08-09T07:23:42.498Z,22.60
2018-08-09T07:26:11.782Z,22.60
2018-08-09T07:28:41.066Z,22.30
2018-08-09T07:31:10.292Z,22.90
2018-08-09T07:33:39.587Z,22.90
2018-08-09T07:36:09.070Z,23.50
2018-08-09T07:38:38.372Z,23.30
2018-08-09T07:41:07.783Z,22.90
2018-08-09T07:43:37.100Z,23.30
2018-08-09T07:46:06.280Z,24.10
2018-08-09T07:48:35.808Z,23.90
2018-08-09T07:51:05.021Z,23.80
2018-08-09T07:53:34.223Z,23.60
2018-08-09T07:56:03.465Z,23.80
2018-08-09T07:58:32.916Z,23.60
2018-08-09T08:01:02.241Z,23.90
2018-08-09T08:03:32.000Z,23.50
2018-08-09T08:06:01.479Z,23.30
2018-08-09T08:08:30.897Z,23.40
2018-08-09T08:11:00.091Z,23.70
2018-08-09T08:13:29.493Z,26.30
2018-08-09T08:15:59.117Z,25.50
2018-08-09T08:18:28.713Z,26.60
2018-08-09T08:20:58.220Z,26.20
2018-08-09T08:23:27.667Z,26.20
2018-08-09T08:25:57.129Z,27.00
2018-08-09T08:28:26.326Z,27.20
2018-08-09T08:30:55.683Z,27.00
2018-08-09T08:33:24.960Z,27.40
2018-08-09T08:35:54.195Z,27.60
2018-08-09T08:38:23.485Z,27.10
2018-08-09T08:40:52.934Z,27.30
2018-08-09T08:43:22.101Z,27.50
2018-08-09T08:45:51.353Z,27.10
2018-08-09T08:48:20.511Z,27.10
2018-08-09T08:50:49.666Z,25.80
2018-08-09T08:53:19.121Z,25.00
2018-08-09T08:55:48.498Z,24.50
2018-08-09T08:58:17.760Z,24.50
2018-08-09T09:00:47.066Z,24.60
2018-08-09T09:03:16.410Z,24.70
2018-08-09T09:05:45.948Z,24.60
2018-08-09T09:08:15.220Z,24.40
2018-08-09T09:10:44.773Z,24.00
2018-08-09T09:13:14.050Z,24.20
2018-08-09T09:15:43.320Z,24.10
2018-08-09T09:18:12.596Z,24.90
2018-08-09T09:20:42.029Z,24.30
2018-08-09T09:23:11.444Z,23.90
2018-08-09T09:25:40.896Z,24.30
2018-08-09T09:28:10.338Z,24.90
2018-08-09T09:30:39.596Z,24.90
2018-08-09T09:33:08.768Z,24.80
2018-08-09T09:35:38.079Z,25.00
2018-08-09T09:38:07.310Z,27.90
2018-08-09T09:40:36.401Z,26.10
2018-08-09T09:43:05.756Z,24.50
2018-08-09T09:45:34.879Z,24.40
2018-08-09T09:48:04.529Z,24.50
2018-08-09T09:50:33.877Z,24.50
2018-08-09T09:53:03.203Z,24.30
2018-08-09T09:55:32.488Z,24.60
2018-08-09T09:58:01.814Z,24.90
2018-08-09T10:01:34.217Z,25.10
2018-08-09T10:04:04.414Z,21.90
2018-08-09T10:06:34.175Z,20.80
2018-08-09T10:09:05.045Z,22.60
2018-08-09T10:11:34.192Z,24.60
2018-08-09T10:14:03.536Z,24.90
2018-08-09T10:16:32.748Z,26.50
2018-08-09T10:19:02.164Z,27.30
2018-08-09T10:21:31.548Z,26.20
2018-08-09T10:24:01.008Z,27.70
2018-08-09T10:26:30.176Z,27.70
2018-08-09T10:28:59.643Z,27.60
2018-08-09T10:31:28.894Z,28.10
2018-08-09T10:33:58.142Z,28.80
2018-08-09T10:36:27.432Z,28.90
2018-08-09T10:38:56.660Z,29.20
2018-08-09T10:41:25.868Z,28.50
2018-08-09T10:43:55.082Z,28.90
2018-08-09T10:46:24.247Z,29.60
2018-08-09T10:48:53.631Z,30.60
2018-08-09T10:51:23.203Z,29.50
2018-08-09T10:53:52.528Z,30.40
2018-08-09T10:56:21.931Z,31.20
2018-08-09T10:58:51.432Z,30.40
2018-08-09T11:01:20.868Z,29.20
2018-08-09T11:03:50.092Z,28.70
2018-08-09T11:06:19.264Z,29.80
2018-08-09T11:08:48.621Z,29.10
2018-08-09T11:11:17.992Z,29.20
2018-08-09T11:13:47.296Z,30.00
2018-08-09T11:16:16.666Z,30.50
2018-08-09T11:18:46.075Z,29.00
2018-08-09T11:21:15.770Z,29.50
2018-08-09T11:23:45.208Z,28.60
2018-08-09T11:26:14.551Z,28.40
2018-08-09T11:28:43.575Z,29.00
2018-08-09T11:31:12.939Z,28.90
2018-08-09T11:33:41.996Z,29.60
2018-08-09T11:36:11.168Z,29.70
2018-08-09T11:38:40.364Z,29.60
2018-08-09T11:41:09.488Z,29.50
2018-08-09T11:43:38.781Z,29.50
2018-08-09T11:46:08.108Z,29.70
2018-08-09T11:48:37.367Z,29.10
2018-08-09T11:51:06.724Z,29.00
2018-08-09T11:53:36.230Z,29.00
2018-08-09T11:56:05.601Z,29.00
2018-08-09T11:58:34.731Z,29.20
2018-08-09T12:01:04.200Z,29.20
2018-08-09T12:03:33.796Z,29.10
2018-08-09T12:06:03.051Z,29.00
2018-08-09T12:08:32.476Z,29.00
2018-08-09T12:11:01.702Z,29.00
2018-08-09T12:13:30.975Z,29.30
2018-08-09T12:16:00.337Z,29.60
2018-08-09T12:18:29.721Z,29.90
2018-08-09T12:20:58.975Z,29.90
2018-08-09T12:23:31.942Z,29.80
2018-08-09T12:26:01.445Z,29.80
2018-08-09T12:28:30.693Z,29.90
2018-08-09T12:30:59.917Z,29.70
2018-08-09T12:33:29.112Z,29.60
2018-08-09T12:35:58.274Z,29.40
2018-08-09T12:38:27.540Z,29.20
2018-08-09T12:40:56.811Z,29.00
2018-08-09T12:43:26.165Z,28.90
2018-08-09T12:45:55.331Z,29.00
2018-08-09T12:48:24.633Z,29.10
2018-08-09T12:50:53.916Z,29.10
2018-08-09T12:53:22.868Z,28.10
2018-08-09T12:55:51.908Z,28.60
2018-08-09T12:58:20.852Z,27.50
2018-08-09T13:00:49.775Z,28.50
2018-08-09T13:03:19.133Z,28.00
2018-08-09T13:05:48.600Z,26.70
2018-08-09T13:08:17.908Z,24.50
2018-08-09T13:10:47.143Z,24.50
2018-08-09T13:13:16.497Z,24.00
2018-08-09T13:15:45.740Z,24.10
2018-08-09T13:18:14.972Z,24.10
2018-08-09T13:20:44.297Z,24.50
2018-08-09T13:23:13.534Z,24.70
2018-08-09T13:25:42.847Z,24.60
2018-08-09T13:28:13.002Z,24.60
2018-08-09T13:30:42.352Z,25.00
2018-08-09T13:33:11.601Z,25.70
2018-08-09T13:35:40.925Z,26.20
2018-08-09T13:38:10.202Z,26.00
2018-08-09T13:40:39.720Z,26.20
2018-08-09T13:43:09.124Z,26.70
2018-08-09T13:45:38.649Z,26.70
2018-08-09T13:48:07.961Z,26.90
2018-08-09T13:50:37.320Z,27.10
2018-08-09T13:53:06.788Z,27.10
2018-08-09T13:55:36.338Z,27.30
2018-08-09T13:58:05.773Z,27.50
2018-08-09T14:00:34.969Z,27.70
2018-08-09T14:03:04.294Z,27.60
2018-08-09T14:05:33.481Z,27.50
2018-08-09T14:08:02.873Z,27.70
2018-08-09T14:10:32.267Z,27.60
2018-08-09T14:13:01.725Z,27.60
2018-08-09T14:15:31.035Z,27.70
2018-08-09T14:18:00.429Z,27.50
2018-08-09T14:20:29.672Z,27.50
2018-08-09T14:22:58.949Z,27.70
2018-08-09T14:25:28.273Z,27.80
2018-08-09T14:27:57.567Z,27.60
2018-08-09T14:30:26.800Z,27.70
2018-08-09T14:32:56.198Z,27.60
2018-08-09T14:35:25.528Z,27.60
2018-08-09T14:37:54.703Z,27.20
2018-08-09T14:40:24.056Z,27.10
2018-08-09T14:42:53.369Z,27.10
2018-08-09T14:45:23.167Z,27.10
2018-08-09T14:47:52.601Z,27.30
2018-08-09T14:50:21.914Z,27.20
2018-08-09T14:52:51.116Z,27.20
2018-08-09T14:55:20.424Z,27.10
2018-08-09T14:57:49.874Z,27.40
2018-08-09T15:00:20.333Z,26.60
2018-08-09T15:02:49.815Z,26.50
2018-08-09T15:05:19.124Z,26.30
2018-08-09T15:07:48.642Z,26.40
2018-08-09T15:10:18.616Z,26.60
2018-08-09T15:12:47.984Z,26.50
2018-08-09T15:15:17.388Z,26.60
2018-08-09T15:17:46.600Z,27.00
2018-08-09T15:20:16.225Z,26.90
2018-08-09T15:22:45.717Z,27.00
2018-08-09T15:25:15.033Z,26.90
2018-08-09T15:27:44.376Z,26.70
2018-08-09T15:30:16.779Z,26.50
2018-08-09T15:32:46.164Z,26.30
2018-08-09T15:35:15.640Z,26.30
2018-08-09T15:37:45.263Z,26.50
2018-08-09T15:40:15.146Z,26.50
2018-08-09T15:42:44.431Z,26.40
2018-08-09T15:45:14.876Z,26.10
2018-08-09T15:47:44.283Z,26.40
2018-08-09T15:50:15.356Z,26.20
2018-08-09T15:52:44.884Z,26.00
2018-08-09T15:55:14.799Z,26.30
2018-08-09T15:57:43.972Z,26.60
2018-08-09T16:00:20.964Z,27.10
2018-08-09T16:02:50.309Z,26.80
2018-08-09T16:05:19.591Z,26.90
2018-08-09T16:07:48.536Z,26.90
2018-08-09T16:10:18.423Z,26.70
2018-08-09T16:12:48.259Z,26.70
2018-08-09T16:15:18.848Z,27.00
2018-08-09T16:17:49.114Z,27.00
2018-08-09T16:20:18.623Z,26.70
2018-08-09T16:22:48.053Z,27.10
2018-08-09T16:25:18.752Z,26.80
2018-08-09T16:27:48.852Z,26.80
2018-08-09T16:30:21.238Z,26.70
2018-08-09T16:32:50.779Z,26.70
2018-08-09T16:35:20.425Z,26.70
2018-08-09T16:37:49.989Z,26.90
2018-08-09T16:40:20.750Z,26.80
2018-08-09T16:42:50.283Z,26.80
2018-08-09T16:45:20.792Z,26.90
2018-08-09T16:47:50.795Z,26.90
2018-08-09T16:50:21.764Z,26.90
2018-08-09T16:52:51.540Z,27.10
2018-08-09T16:55:22.124Z,26.70
2018-08-09T16:57:51.333Z,27.00
2018-08-09T17:00:21.852Z,27.10
2018-08-09T17:02:51.825Z,27.20
2018-08-09T17:05:24.585Z,26.90
2018-08-09T17:07:54.045Z,26.70
2018-08-09T17:10:24.552Z,26.60
2018-08-09T17:12:53.852Z,26.10
2018-08-09T17:15:24.865Z,26.00
2018-08-09T17:17:54.629Z,25.90
2018-08-09T17:20:29.451Z,25.90
2018-08-09T17:22:59.076Z,26.40
2018-08-09T17:25:28.489Z,25.90
2018-08-09T17:27:57.853Z,26.00
2018-08-09T17:30:28.160Z,25.80
2018-08-09T17:32:58.111Z,26.00
2018-08-09T17:35:27.520Z,26.10
2018-08-09T17:37:56.899Z,26.00
2018-08-09T17:40:28.579Z,25.90
2018-08-09T17:42:58.581Z,24.60
2018-08-09T17:45:32.049Z,24.70
2018-08-09T17:48:01.916Z,24.50
2018-08-09T17:50:31.120Z,22.70
2018-08-09T17:53:01.705Z,22.40
2018-08-09T17:55:31.360Z,22.70
2018-08-09T17:58:00.598Z,22.30
2018-08-09T18:00:31.386Z,23.40
2018-08-09T18:03:00.865Z,23.50
2018-08-09T18:05:30.128Z,24.10
2018-08-09T18:08:00.062Z,23.50
2018-08-09T18:10:34.495Z,23.10
2018-08-09T18:13:03.940Z,23.00
2018-08-09T18:15:34.893Z,23.00
2018-08-09T18:18:07.672Z,23.00
2018-08-09T18:20:39.135Z,22.80
2018-08-09T18:23:12.018Z,23.10
2018-08-09T18:25:48.773Z,23.20
2018-08-09T18:28:18.152Z,23.50
2018-08-09T18:30:51.609Z,22.70
2018-08-09T18:33:21.221Z,23.00
2018-08-09T18:35:50.464Z,22.90
2018-08-09T18:38:19.999Z,22.80
2018-08-09T18:40:50.026Z,22.40
2018-08-09T18:43:19.356Z,22.80
2018-08-09T18:45:48.768Z,22.50
2018-08-09T18:48:21.015Z,23.00
2018-08-09T18:50:53.567Z,22.40
2018-08-09T18:53:22.977Z,23.00
2018-08-09T18:55:52.349Z,22.50
2018-08-09T18:58:21.747Z,23.10
2018-08-09T19:00:51.004Z,22.30
2018-08-09T19:03:20.410Z,22.50
2018-08-09T19:05:49.840Z,22.70
2018-08-09T19:08:19.111Z,22.40
2018-08-09T19:10:48.494Z,23.10
2018-08-09T19:13:20.132Z,22.60
2018-08-09T19:15:50.431Z,22.20
2018-08-09T19:18:19.641Z,22.60
2018-08-09T19:20:49.100Z,22.30
2018-08-09T19:23:18.365Z,22.30
2018-08-09T19:25:47.712Z,22.20
2018-08-09T19:28:17.007Z,21.90
2018-08-09T19:30:46.244Z,22.10
2018-08-09T19:33:15.647Z,22.30
2018-08-09T19:35:46.262Z,22.00
2018-08-09T19:38:15.687Z,21.70
2018-08-09T19:40:45.327Z,21.50
2018-08-09T19:43:14.813Z,21.90
2018-08-09T19:45:44.409Z,22.10
2018-08-09T19:48:14.087Z,21.80
2018-08-09T19:50:44.090Z,21.80
2018-08-09T19:53:13.944Z,21.30
2018-08-09T19:55:43.942Z,21.60
2018-08-09T19:58:13.903Z,21.50
2018-08-09T20:00:43.592Z,21.70
2018-08-09T20:03:13.091Z,21.30
2018-08-09T20:05:42.744Z,21.40
2018-08-09T20:08:12.293Z,21.60
2018-08-09T20:10:41.752Z,21.60
2018-08-09T20:13:11.120Z,21.50
2018-08-09T20:15:40.524Z,21.60
2018-08-09T20:18:10.059Z,21.20
2018-08-09T20:20:39.463Z,21.40
2018-08-09T20:23:08.650Z,21.40
2018-08-09T20:25:38.081Z,21.60
2018-08-09T20:28:07.341Z,21.40
2018-08-09T20:30:36.649Z,21.80
2018-08-09T20:33:06.107Z,21.90
2018-08-09T20:35:35.301Z,21.20
2018-08-09T20:38:04.844Z,21.50
2018-08-09T20:40:34.121Z,21.50
2018-08-09T20:43:03.660Z,20.70
2018-08-09T20:45:33.045Z,20.60
2018-08-09T20:48:02.364Z,20.40
2018-08-09T20:50:31.653Z,20.30
2018-08-09T20:53:01.017Z,20.50
2018-08-09T20:55:30.457Z,20.40
2018-08-09T20:58:00.061Z,20.30
2018-08-09T21:00:30.879Z,19.80
2018-08-09T21:03:01.140Z,20.20
2018-08-09T21:05:32.073Z,20.30
2018-08-09T21:08:01.601Z,19.90
2018-08-09T21:10:31.449Z,20.30
2018-08-09T21:13:00.942Z,20.20
2018-08-09T21:15:30.328Z,20.20
2018-08-09T21:17:59.660Z,20.60
2018-08-09T21:20:28.873Z,20.20
2018-08-09T21:22:58.308Z,20.60
2018-08-09T21:25:27.501Z,20.40
2018-08-09T21:27:56.834Z,20.30
2018-08-09T21:30:26.193Z,20.40
2018-08-09T21:32:55.491Z,19.80
2018-08-09T21:35:24.600Z,19.80
2018-08-09T21:37:53.964Z,20.40
2018-08-09T21:40:23.228Z,20.80
2018-08-09T21:42:52.573Z,20.70
2018-08-09T21:45:21.732Z,20.90
2018-08-09T21:47:51.223Z,19.80
2018-08-09T21:50:21.772Z,19.90
2018-08-09T21:52:51.072Z,20.30
2018-08-09T21:55:20.228Z,20.30
2018-08-09T21:57:49.818Z,19.90
2018-08-09T22:00:49.324Z,19.70
2018-08-09T22:03:20.395Z,20.00
2018-08-09T22:05:54.844Z,20.30
2018-08-09T22:08:29.136Z,19.90
2018-08-09T22:11:03.605Z,20.20
2018-08-09T22:13:37.935Z,20.10
2018-08-09T22:16:12.264Z,20.30
2018-08-09T22:18:46.772Z,20.70
2018-08-09T22:21:21.052Z,20.80
2018-08-09T22:23:50.197Z,20.40
2018-08-09T22:26:19.481Z,19.70
2018-08-09T22:28:48.929Z,20.40
2018-08-09T22:31:18.324Z,20.60
2018-08-09T22:33:47.576Z,20.10
2018-08-09T22:36:16.999Z,19.70
2018-08-09T22:38:46.390Z,19.80
2018-08-09T22:41:15.549Z,20.00
2018-08-09T22:43:44.872Z,19.60
2018-08-09T22:46:14.420Z,18.80
2018-08-09T22:48:43.717Z,19.50
2018-08-09T22:51:13.164Z,18.90
2018-08-09T22:53:42.439Z,19.70
2018-08-09T22:56:11.809Z,19.50
2018-08-09T22:58:41.672Z,19.80
2018-08-09T23:01:11.036Z,18.80
2018-08-09T23:03:40.689Z,19.40
2018-08-09T23:06:10.164Z,18.70
2018-08-09T23:08:39.697Z,19.00
2018-08-09T23:11:09.184Z,19.90
2018-08-09T23:13:38.792Z,20.10
2018-08-09T23:16:08.140Z,18.00
2018-08-09T23:18:37.516Z,17.80
2018-08-09T23:21:06.849Z,18.10
2018-08-09T23:23:36.160Z,19.90
2018-08-09T23:26:05.612Z,20.10
2018-08-09T23:28:35.097Z,19.60
2018-08-09T23:31:04.472Z,19.10
2018-08-09T23:33:33.831Z,18.80
2018-08-09T23:36:03.097Z,19.60
2018-08-09T23:38:32.553Z,19.50
2018-08-09T23:41:01.733Z,19.40
2018-08-09T23:43:30.960Z,19.60
2018-08-09T23:46:00.165Z,20.20
2018-08-09T23:48:29.488Z,19.30
2018-08-09T23:50:58.668Z,19.50
2018-08-09T23:53:28.052Z,20.80
2018-08-09T23:55:57.288Z,20.40
2018-08-09T23:58:26.526Z,19.30
